createdAt,value
2023-01-23T00:12:35.364Z,58.13
2023-01-23T00:15:48.309Z,60.18
2023-01-23T00:19:00.928Z,54.18
2023-01-23T00:22:15.337Z,55.13
2023-01-23T00:25:27.382Z,67.33
2023-01-23T00:28:39.544Z,58.68
2023-01-23T00:31:52.897Z,56.88
2023-01-23T00:35:05.062Z,59.20
2023-01-23T00:38:17.174Z,67.55
2023-01-23T00:41:31.663Z,68.20
2023-01-23T00:44:43.777Z,68.13
2023-01-23T00:47:58.172Z,60.18
2023-01-23T00:51:10.625Z,59.18
2023-01-23T00:54:26.074Z,62.53
2023-01-23T00:57:38.017Z,69.13
2023-01-23T01:00:50.069Z,68.58
2023-01-23T01:04:03.076Z,66.18
2023-01-23T01:07:25.949Z,63.68
2023-01-23T01:10:38.548Z,57.43
2023-01-23T01:16:55.986Z,59.18
2023-01-23T01:20:09.668Z,65.40
2023-01-23T01:23:22.587Z,62.23
2023-01-23T01:26:36.640Z,62.78
2023-01-23T01:29:48.710Z,60.75
2023-01-23T01:33:01.912Z,61.88
2023-01-23T01:36:18.604Z,70.43
2023-01-23T01:39:32.008Z,67.23
2023-01-23T01:42:49.803Z,65.35
2023-01-23T01:46:34.693Z,53.93
2023-01-23T01:49:47.686Z,51.08
2023-01-23T01:52:59.721Z,55.15
2023-01-23T01:56:15.766Z,59.13
2023-01-23T01:59:30.581Z,55.65
2023-01-23T02:02:47.463Z,57.73
2023-01-23T02:06:00.678Z,56.78
2023-01-23T02:09:19.994Z,49.85
2023-01-23T02:12:35.153Z,52.45
2023-01-23T02:15:48.675Z,58.48
2023-01-23T02:19:05.598Z,53.35
2023-01-23T02:22:32.235Z,51.80
2023-01-23T02:25:53.438Z,44.85
2023-01-23T02:29:06.349Z,42.60
2023-01-23T02:32:22.038Z,55.00
2023-01-23T02:35:37.190Z,54.68
2023-01-23T02:38:59.985Z,53.10
2023-01-23T02:42:13.362Z,58.23
2023-01-23T02:45:27.646Z,58.53
2023-01-23T02:48:40.448Z,56.33
2023-01-23T02:51:53.127Z,57.35
2023-01-23T02:55:05.138Z,49.08
2023-01-23T02:58:28.125Z,49.38
2023-01-23T03:01:40.575Z,49.80
2023-01-23T03:04:53.645Z,51.55
2023-01-23T03:08:05.759Z,50.05
2023-01-23T03:11:18.412Z,48.40
2023-01-23T03:14:32.470Z,50.88
2023-01-23T03:17:44.633Z,51.80
2023-01-23T03:20:59.643Z,48.85
2023-01-23T03:24:15.172Z,45.73
2023-01-23T03:27:27.155Z,51.68
2023-01-23T03:30:40.885Z,50.23
2023-01-23T03:37:21.252Z,46.83
2023-01-23T03:40:49.882Z,52.88
2023-01-23T03:44:03.244Z,51.50
2023-01-23T03:47:16.557Z,47.08
2023-01-23T03:50:28.650Z,48.50
2023-01-23T03:53:42.429Z,50.13
2023-01-23T03:56:55.840Z,49.93
2023-01-23T04:03:34.008Z,52.75
2023-01-23T04:14:19.982Z,47.73
2023-01-23T04:21:13.759Z,47.30
2023-01-23T04:24:26.109Z,47.70
2023-01-23T05:20:03.858Z,48.00
2023-01-23T05:30:47.347Z,54.65
2023-01-23T05:34:04.322Z,56.95
2023-01-23T05:41:16.154Z,58.33
2023-01-23T05:48:27.945Z,52.75
2023-01-23T05:51:40.966Z,53.70
2023-01-23T06:18:11.824Z,48.78
2023-01-23T06:56:39.885Z,129.83
2023-01-23T07:19:15.376Z,51.30
2023-01-23T07:22:39.923Z,47.28
2023-01-23T07:25:52.265Z,46.40
2023-01-23T07:29:05.087Z,46.48
2023-01-23T07:47:11.540Z,39.10
2023-01-23T07:50:23.841Z,36.70
2023-01-23T07:53:36.227Z,39.93
2023-01-23T07:56:48.471Z,82.63
2023-01-23T08:00:00.777Z,119.03
2023-01-23T08:03:13.073Z,93.48
2023-01-23T08:06:25.194Z,42.93
2023-01-23T08:09:37.400Z,34.28
2023-01-23T08:12:49.718Z,37.28
2023-01-23T08:16:14.656Z,43.65
2023-01-23T08:19:28.388Z,35.60
2023-01-23T08:30:04.064Z,49.53
2023-01-23T08:36:56.485Z,43.90
2023-01-23T08:40:09.564Z,38.40
2023-01-23T08:51:29.100Z,42.50
2023-01-23T08:54:41.512Z,37.25
2023-01-23T08:57:54.229Z,35.13
2023-01-23T09:05:06.180Z,42.13
2023-01-23T09:08:18.358Z,39.75
2023-01-23T09:11:30.611Z,36.93
2023-01-23T09:14:42.571Z,37.15
2023-01-23T09:17:54.766Z,33.55
2023-01-23T09:21:16.940Z,32.20
2023-01-23T09:24:29.032Z,31.85
2023-01-23T09:27:41.257Z,29.48
2023-01-23T09:30:53.538Z,32.33
2023-01-23T09:34:07.946Z,33.48
2023-01-23T09:37:20.715Z,35.25
2023-01-23T09:44:40.427Z,55.90
2023-01-23T09:48:14.306Z,35.13
2023-01-23T09:54:48.176Z,34.03
2023-01-23T09:58:03.772Z,32.73
2023-01-23T10:09:22.754Z,40.68
2023-01-23T10:13:10.001Z,40.03
2023-01-23T10:16:49.381Z,37.73
2023-01-23T10:20:30.511Z,39.38
2023-01-23T10:23:59.522Z,34.08
2023-01-23T10:27:22.811Z,35.35
2023-01-23T10:30:42.199Z,38.33
2023-01-23T10:34:03.467Z,33.53
2023-01-23T10:37:22.979Z,35.88
2023-01-23T10:40:49.740Z,42.85
2023-01-23T10:44:05.098Z,56.53
2023-01-23T10:47:31.967Z,32.78
2023-01-23T10:50:45.762Z,36.20
2023-01-23T10:54:31.342Z,38.53
2023-01-23T10:57:54.406Z,34.05
2023-01-23T11:01:07.622Z,33.65
2023-01-23T11:04:26.641Z,32.15
2023-01-23T11:07:42.527Z,31.05
2023-01-23T11:10:54.785Z,34.80
2023-01-23T11:14:22.921Z,30.30
2023-01-23T11:17:39.925Z,32.70
2023-01-23T11:21:00.857Z,37.15
2023-01-23T11:24:38.622Z,34.68
2023-01-23T11:27:40.800Z,32.35
2023-01-23T11:31:11.920Z,37.58
2023-01-23T11:34:15.994Z,31.73
2023-01-23T11:40:41.438Z,36.90
2023-01-23T11:43:53.791Z,39.60
2023-01-23T11:47:55.308Z,48.65
2023-01-23T11:51:14.057Z,66.80
2023-01-23T11:54:51.972Z,132.20
2023-01-23T11:58:14.848Z,42.03
2023-01-23T12:01:33.630Z,35.90
2023-01-23T12:05:21.012Z,36.93
2023-01-23T12:08:41.003Z,35.70
2023-01-23T12:12:07.862Z,41.48
2023-01-23T12:15:30.317Z,37.95
2023-01-23T12:18:48.560Z,37.80
2023-01-23T12:22:11.212Z,34.95
2023-01-23T12:25:34.163Z,36.20
2023-01-23T12:29:22.340Z,41.93
2023-01-23T12:32:56.124Z,35.00
2023-01-23T12:36:21.128Z,38.25
2023-01-23T12:39:51.875Z,32.20
2023-01-23T12:43:11.477Z,30.58
2023-01-23T12:46:29.132Z,31.70
2023-01-23T12:49:46.982Z,33.73
2023-01-23T12:53:04.090Z,33.58
2023-01-23T12:59:36.769Z,29.03
2023-01-23T13:02:54.449Z,30.18
2023-01-23T13:06:20.960Z,29.43
2023-01-23T13:09:56.503Z,31.28
2023-01-23T13:13:08.614Z,30.30
2023-01-23T13:16:23.550Z,28.45
2023-01-23T13:23:42.893Z,34.25
2023-01-23T13:26:54.996Z,35.20
2023-01-23T13:30:08.952Z,38.28
2023-01-23T13:34:06.832Z,32.63
2023-01-23T13:37:53.462Z,28.03
2023-01-23T13:41:38.984Z,30.93
2023-01-23T13:45:30.034Z,27.23
2023-01-23T14:23:59.804Z,35.30
2023-01-23T14:27:44.465Z,36.27
2023-01-23T14:31:03.867Z,33.78
2023-01-23T14:34:23.716Z,37.10
2023-01-23T14:37:38.415Z,38.15
2023-01-23T14:40:51.526Z,38.20
2023-01-23T14:44:06.048Z,36.78
2023-01-23T14:47:25.830Z,39.55
2023-01-23T14:50:38.548Z,35.55
2023-01-23T14:54:04.310Z,37.40
2023-01-23T14:57:21.089Z,37.70
2023-01-23T15:00:34.535Z,40.78
2023-01-23T15:03:51.295Z,40.28
2023-01-23T15:07:06.165Z,46.00
2023-01-23T15:10:24.880Z,43.68
2023-01-23T15:13:47.717Z,42.78
2023-01-23T15:17:51.594Z,43.60
2023-01-23T15:24:24.360Z,49.60
2023-01-23T15:27:41.276Z,43.28
2023-01-23T15:30:55.250Z,46.75
2023-01-23T15:34:35.683Z,47.33
2023-01-23T15:50:22.239Z,60.68
2023-01-23T15:57:54.452Z,58.30
2023-01-23T16:01:06.850Z,64.70
2023-01-23T16:04:20.607Z,59.20
2023-01-23T16:07:37.931Z,62.95
2023-01-23T16:10:50.606Z,61.53
2023-01-23T16:14:02.763Z,59.90
2023-01-23T16:17:16.965Z,53.00
2023-01-23T16:20:34.574Z,56.93
2023-01-23T16:23:47.927Z,56.28
2023-01-23T16:27:02.381Z,51.98
2023-01-23T16:30:23.996Z,49.35
2023-01-23T16:33:36.416Z,48.73
2023-01-23T16:36:48.754Z,46.75
2023-01-23T16:40:00.881Z,47.40
2023-01-23T16:43:12.974Z,49.28
2023-01-23T16:46:27.226Z,50.68
2023-01-23T16:57:47.629Z,46.38
2023-01-23T17:01:05.280Z,45.10
2023-01-23T22:15:03.658Z,71.95
2023-01-23T22:46:36.050Z,65.28
2023-01-23T22:49:48.229Z,62.88
2023-01-23T23:13:58.232Z,57.43
2023-01-23T23:41:47.163Z,51.28
